sensor_id;sensor_type;location;lat;lon;timestamp;temperature;humidity
29571;DHT22;16814;52.118;11.436;2023-05-27T00:02:06;9.90;99.90
29571;DHT22;16814;52.118;11.436;2023-05-27T00:04:33;9.80;99.90
29571;DHT22;16814;52.118;11.436;2023-05-27T00:06:59;9.70;99.90
29571;DHT22;16814;52.118;11.436;2023-05-27T00:09:25;9.60;99.90
29571;DHT22;16814;52.118;11.436;2023-05-27T00:11:51;9.40;99.90
29571;DHT22;16814;52.118;11.436;2023-05-27T00:14:17;9.30;99.90
29571;DHT22;16814;52.118;11.436;2023-05-27T00:16:45;9.30;99.90
29571;DHT22;16814;52.118;11.436;2023-05-27T00:19:12;9.30;99.90
29571;DHT22;16814;52.118;11.436;2023-05-27T00:21:38;9.30;99.90
29571;DHT22;16814;52.118;11.436;2023-05-27T00:24:04;9.40;99.90
29571;DHT22;16814;52.118;11.436;2023-05-27T00:26:33;9.40;99.90
29571;DHT22;16814;52.118;11.436;2023-05-27T00:28:58;9.60;99.90
29571;DHT22;16814;52.118;11.436;2023-05-27T00:31:24;9.70;99.90
29571;DHT22;16814;52.118;11.436;2023-05-27T00:33:52;9.90;99.90
29571;DHT22;16814;52.118;11.436;2023-05-27T00:36:21;10.00;99.90
29571;DHT22;16814;52.118;11.436;2023-05-27T00:38:48;10.10;99.90
29571;DHT22;16814;52.118;11.436;2023-05-27T00:41:16;10.20;99.90
29571;DHT22;16814;52.118;11.436;2023-05-27T00:43:41;10.00;99.90
29571;DHT22;16814;52.118;11.436;2023-05-27T00:46:09;9.70;99.90
29571;DHT22;16814;52.118;11.436;2023-05-27T00:48:38;9.80;99.90
29571;DHT22;16814;52.118;11.436;2023-05-27T00:51:05;10.00;99.90
29571;DHT22;16814;52.118;11.436;2023-05-27T00:53:42;10.10;99.90
29571;DHT22;16814;52.118;11.436;2023-05-27T00:56:10;10.20;99.90
29571;DHT22;16814;52.118;11.436;2023-05-27T00:58:37;10.20;99.90
29571;DHT22;16814;52.118;11.436;2023-05-27T01:01:06;10.10;99.90
29571;DHT22;16814;52.118;11.436;2023-05-27T01:03:34;9.90;99.90
29571;DHT22;16814;52.118;11.436;2023-05-27T01:08:59;9.90;99.90
29571;DHT22;16814;52.118;11.436;2023-05-27T01:12:12;9.80;99.90
29571;DHT22;16814;52.118;11.436;2023-05-27T01:14:43;9.90;99.90
29571;DHT22;16814;52.118;11.436;2023-05-27T01:17:11;9.70;99.90
29571;DHT22;16814;52.118;11.436;2023-05-27T01:19:45;9.70;99.90
29571;DHT22;16814;52.118;11.436;2023-05-27T01:22:14;9.70;99.90
29571;DHT22;16814;52.118;11.436;2023-05-27T01:24:42;9.60;99.90
29571;DHT22;16814;52.118;11.436;2023-05-27T01:27:11;9.40;99.90
29571;DHT22;16814;52.118;11.436;2023-05-27T01:29:41;9.50;99.90
29571;DHT22;16814;52.118;11.436;2023-05-27T01:34:50;9.60;99.90
29571;DHT22;16814;52.118;11.436;2023-05-27T01:37:19;9.60;99.90
29571;DHT22;16814;52.118;11.436;2023-05-27T01:39:59;9.40;99.90
29571;DHT22;16814;52.118;11.436;2023-05-27T01:42:27;9.40;99.90
29571;DHT22;16814;52.118;11.436;2023-05-27T01:44:56;9.40;99.90
29571;DHT22;16814;52.118;11.436;2023-05-27T01:47:27;9.50;99.90
29571;DHT22;16814;52.118;11.436;2023-05-27T01:49:55;9.50;99.90
29571;DHT22;16814;52.118;11.436;2023-05-27T01:52:24;9.50;99.90
29571;DHT22;16814;52.118;11.436;2023-05-27T01:54:49;9.50;99.90
29571;DHT22;16814;52.118;11.436;2023-05-27T01:57:15;9.50;99.90
29571;DHT22;16814;52.118;11.436;2023-05-27T01:59:41;9.40;99.90
29571;DHT22;16814;52.118;11.436;2023-05-27T02:02:09;9.30;99.90
29571;DHT22;16814;52.118;11.436;2023-05-27T02:04:38;9.30;99.90
29571;DHT22;16814;52.118;11.436;2023-05-27T02:07:05;9.20;99.90
29571;DHT22;16814;52.118;11.436;2023-05-27T02:09:32;9.20;99.90
29571;DHT22;16814;52.118;11.436;2023-05-27T02:11:57;9.30;99.90
29571;DHT22;16814;52.118;11.436;2023-05-27T02:14:26;9.20;99.90
29571;DHT22;16814;52.118;11.436;2023-05-27T02:16:53;9.20;99.90
29571;DHT22;16814;52.118;11.436;2023-05-27T02:19:20;9.10;99.90
29571;DHT22;16814;52.118;11.436;2023-05-27T02:21:48;9.20;99.90
29571;DHT22;16814;52.118;11.436;2023-05-27T02:24:15;9.10;99.90
29571;DHT22;16814;52.118;11.436;2023-05-27T02:26:40;9.10;99.90
29571;DHT22;16814;52.118;11.436;2023-05-27T02:29:06;8.90;99.90
29571;DHT22;16814;52.118;11.436;2023-05-27T02:31:33;8.90;99.90
29571;DHT22;16814;52.118;11.436;2023-05-27T02:33:59;8.70;99.90
29571;DHT22;16814;52.118;11.436;2023-05-27T02:36:26;8.40;99.90
29571;DHT22;16814;52.118;11.436;2023-05-27T02:38:52;8.50;99.90
29571;DHT22;16814;52.118;11.436;2023-05-27T02:41:18;8.60;99.90
29571;DHT22;16814;52.118;11.436;2023-05-27T02:43:44;8.60;99.90
29571;DHT22;16814;52.118;11.436;2023-05-27T02:46:12;8.70;99.90
29571;DHT22;16814;52.118;11.436;2023-05-27T02:48:38;8.80;99.90
29571;DHT22;16814;52.118;11.436;2023-05-27T02:51:07;8.80;99.90
29571;DHT22;16814;52.118;11.436;2023-05-27T02:53:32;8.80;99.90
29571;DHT22;16814;52.118;11.436;2023-05-27T02:55:59;9.00;99.90
29571;DHT22;16814;52.118;11.436;2023-05-27T02:58:26;8.90;99.90
29571;DHT22;16814;52.118;11.436;2023-05-27T03:00:53;8.80;99.90
29571;DHT22;16814;52.118;11.436;2023-05-27T03:03:20;8.90;99.90
29571;DHT22;16814;52.118;11.436;2023-05-27T03:05:46;8.90;99.90
29571;DHT22;16814;52.118;11.436;2023-05-27T03:08:14;8.90;99.90
29571;DHT22;16814;52.118;11.436;2023-05-27T03:10:40;8.70;99.90
29571;DHT22;16814;52.118;11.436;2023-05-27T03:13:07;8.70;99.90
29571;DHT22;16814;52.118;11.436;2023-05-27T03:15:35;8.70;99.90
29571;DHT22;16814;52.118;11.436;2023-05-27T03:18:03;8.70;99.90
29571;DHT22;16814;52.118;11.436;2023-05-27T03:20:30;8.70;99.90
29571;DHT22;16814;52.118;11.436;2023-05-27T03:22:57;8.60;99.90
29571;DHT22;16814;52.118;11.436;2023-05-27T03:25:23;8.50;99.90
29571;DHT22;16814;52.118;11.436;2023-05-27T03:27:49;8.40;99.90
29571;DHT22;16814;52.118;11.436;2023-05-27T03:30:16;8.50;99.90
29571;DHT22;16814;52.118;11.436;2023-05-27T03:32:42;8.10;99.90
29571;DHT22;16814;52.118;11.436;2023-05-27T03:35:09;8.50;99.90
29571;DHT22;16814;52.118;11.436;2023-05-27T03:37:36;8.50;99.90
29571;DHT22;16814;52.118;11.436;2023-05-27T03:40:05;8.60;99.90
29571;DHT22;16814;52.118;11.436;2023-05-27T03:42:35;8.50;99.90
29571;DHT22;16814;52.118;11.436;2023-05-27T03:45:02;8.30;99.90
29571;DHT22;16814;52.118;11.436;2023-05-27T03:47:29;8.20;99.90
29571;DHT22;16814;52.118;11.436;2023-05-27T03:49:56;8.30;99.90
29571;DHT22;16814;52.118;11.436;2023-05-27T03:52:23;8.10;99.90
29571;DHT22;16814;52.118;11.436;2023-05-27T03:54:50;7.80;99.90
29571;DHT22;16814;52.118;11.436;2023-05-27T03:57:16;7.70;99.90
29571;DHT22;16814;52.118;11.436;2023-05-27T03:59:42;7.70;99.90
29571;DHT22;16814;52.118;11.436;2023-05-27T04:02:09;7.80;99.90
29571;DHT22;16814;52.118;11.436;2023-05-27T04:04:36;8.20;99.90
29571;DHT22;16814;52.118;11.436;2023-05-27T04:07:03;8.50;99.90
29571;DHT22;16814;52.118;11.436;2023-05-27T04:09:30;8.50;99.90
29571;DHT22;16814;52.118;11.436;2023-05-27T04:11:59;8.50;99.90
29571;DHT22;16814;52.118;11.436;2023-05-27T04:14:25;8.70;99.90
29571;DHT22;16814;52.118;11.436;2023-05-27T04:16:52;8.70;99.90
29571;DHT22;16814;52.118;11.436;2023-05-27T04:19:19;8.90;99.90
29571;DHT22;16814;52.118;11.436;2023-05-27T04:21:47;9.10;99.90
29571;DHT22;16814;52.118;11.436;2023-05-27T04:24:15;9.20;99.90
29571;DHT22;16814;52.118;11.436;2023-05-27T04:26:40;9.20;99.90
29571;DHT22;16814;52.118;11.436;2023-05-27T04:29:07;9.20;99.90
29571;DHT22;16814;52.118;11.436;2023-05-27T04:31:38;9.20;99.90
29571;DHT22;16814;52.118;11.436;2023-05-27T04:34:03;9.00;99.90
29571;DHT22;16814;52.118;11.436;2023-05-27T04:36:29;9.20;99.90
29571;DHT22;16814;52.118;11.436;2023-05-27T04:39:09;9.30;99.90
29571;DHT22;16814;52.118;11.436;2023-05-27T04:41:39;9.10;99.90
29571;DHT22;16814;52.118;11.436;2023-05-27T04:44:06;9.00;99.90
29571;DHT22;16814;52.118;11.436;2023-05-27T04:46:34;9.00;99.90
29571;DHT22;16814;52.118;11.436;2023-05-27T04:49:02;9.10;99.90
29571;DHT22;16814;52.118;11.436;2023-05-27T04:51:30;9.10;99.90
29571;DHT22;16814;52.118;11.436;2023-05-27T04:53:58;9.20;99.90
29571;DHT22;16814;52.118;11.436;2023-05-27T04:56:24;9.40;99.90
29571;DHT22;16814;52.118;11.436;2023-05-27T04:58:51;9.50;99.90
29571;DHT22;16814;52.118;11.436;2023-05-27T05:01:17;9.50;99.90
29571;DHT22;16814;52.118;11.436;2023-05-27T05:03:46;9.70;99.90
29571;DHT22;16814;52.118;11.436;2023-05-27T05:06:39;10.00;99.90
29571;DHT22;16814;52.118;11.436;2023-05-27T05:09:08;10.20;99.90
29571;DHT22;16814;52.118;11.436;2023-05-27T05:11:35;10.30;99.90
29571;DHT22;16814;52.118;11.436;2023-05-27T05:14:02;10.30;99.90
29571;DHT22;16814;52.118;11.436;2023-05-27T05:16:29;10.40;99.90
29571;DHT22;16814;52.118;11.436;2023-05-27T05:18:56;10.50;99.90
29571;DHT22;16814;52.118;11.436;2023-05-27T05:21:22;10.70;99.90
29571;DHT22;16814;52.118;11.436;2023-05-27T05:23:49;10.90;99.90
29571;DHT22;16814;52.118;11.436;2023-05-27T05:26:16;11.00;99.90
29571;DHT22;16814;52.118;11.436;2023-05-27T05:28:42;11.30;99.90
29571;DHT22;16814;52.118;11.436;2023-05-27T05:31:10;11.30;99.90
29571;DHT22;16814;52.118;11.436;2023-05-27T05:33:35;11.70;99.90
29571;DHT22;16814;52.118;11.436;2023-05-27T05:36:05;12.40;99.90
29571;DHT22;16814;52.118;11.436;2023-05-27T05:38:30;13.50;99.90
29571;DHT22;16814;52.118;11.436;2023-05-27T05:40:57;14.50;99.90
29571;DHT22;16814;52.118;11.436;2023-05-27T05:43:25;15.50;99.90
29571;DHT22;16814;52.118;11.436;2023-05-27T05:45:51;16.10;99.90
29571;DHT22;16814;52.118;11.436;2023-05-27T05:48:17;16.30;99.90
29571;DHT22;16814;52.118;11.436;2023-05-27T05:50:49;16.50;99.90
29571;DHT22;16814;52.118;11.436;2023-05-27T05:53:14;16.70;99.90
29571;DHT22;16814;52.118;11.436;2023-05-27T05:55:42;17.10;99.90
29571;DHT22;16814;52.118;11.436;2023-05-27T05:58:08;17.00;99.90
29571;DHT22;16814;52.118;11.436;2023-05-27T06:00:35;17.10;99.90
29571;DHT22;16814;52.118;11.436;2023-05-27T06:03:00;17.50;99.90
29571;DHT22;16814;52.118;11.436;2023-05-27T06:05:27;17.60;99.90
29571;DHT22;16814;52.118;11.436;2023-05-27T06:07:55;17.80;99.90
29571;DHT22;16814;52.118;11.436;2023-05-27T06:10:21;18.10;99.90
29571;DHT22;16814;52.118;11.436;2023-05-27T06:12:48;18.20;99.90
29571;DHT22;16814;52.118;11.436;2023-05-27T06:15:13;18.20;99.90
29571;DHT22;16814;52.118;11.436;2023-05-27T06:17:39;18.20;99.90
29571;DHT22;16814;52.118;11.436;2023-05-27T06:20:06;18.20;99.90
29571;DHT22;16814;52.118;11.436;2023-05-27T06:22:33;18.20;99.90
29571;DHT22;16814;52.118;11.436;2023-05-27T06:24:58;18.00;99.90
29571;DHT22;16814;52.118;11.436;2023-05-27T06:27:25;18.00;99.90
29571;DHT22;16814;52.118;11.436;2023-05-27T06:29:51;17.80;99.90
29571;DHT22;16814;52.118;11.436;2023-05-27T06:32:20;17.70;99.90
29571;DHT22;16814;52.118;11.436;2023-05-27T06:34:48;18.00;99.90
29571;DHT22;16814;52.118;11.436;2023-05-27T06:37:14;18.00;99.90
29571;DHT22;16814;52.118;11.436;2023-05-27T06:39:41;17.90;99.90
29571;DHT22;16814;52.118;11.436;2023-05-27T06:42:08;17.80;99.90
29571;DHT22;16814;52.118;11.436;2023-05-27T06:44:34;17.70;99.90
29571;DHT22;16814;52.118;11.436;2023-05-27T06:47:04;17.60;99.90
29571;DHT22;16814;52.118;11.436;2023-05-27T06:49:31;17.30;99.90
29571;DHT22;16814;52.118;11.436;2023-05-27T06:51:58;17.30;99.90
29571;DHT22;16814;52.118;11.436;2023-05-27T06:54:25;17.10;99.90
29571;DHT22;16814;52.118;11.436;2023-05-27T06:56:52;17.30;99.90
29571;DHT22;16814;52.118;11.436;2023-05-27T06:59:17;17.50;99.90
29571;DHT22;16814;52.118;11.436;2023-05-27T07:01:43;17.30;99.90
29571;DHT22;16814;52.118;11.436;2023-05-27T07:04:15;17.50;99.90
29571;DHT22;16814;52.118;11.436;2023-05-27T07:06:43;17.50;99.90
29571;DHT22;16814;52.118;11.436;2023-05-27T07:09:08;17.10;99.90
29571;DHT22;16814;52.118;11.436;2023-05-27T07:11:38;17.20;99.90
29571;DHT22;16814;52.118;11.436;2023-05-27T07:14:05;17.50;99.90
29571;DHT22;16814;52.118;11.436;2023-05-27T07:16:32;17.70;99.90
29571;DHT22;16814;52.118;11.436;2023-05-27T07:18:59;17.70;99.90
29571;DHT22;16814;52.118;11.436;2023-05-27T07:21:26;18.00;99.90
29571;DHT22;16814;52.118;11.436;2023-05-27T07:23:53;18.10;99.90
29571;DHT22;16814;52.118;11.436;2023-05-27T07:26:18;18.30;99.90
29571;DHT22;16814;52.118;11.436;2023-05-27T07:28:49;18.20;99.90
29571;DHT22;16814;52.118;11.436;2023-05-27T07:31:16;18.20;99.90
29571;DHT22;16814;52.118;11.436;2023-05-27T07:33:44;18.10;99.90
29571;DHT22;16814;52.118;11.436;2023-05-27T07:36:12;18.00;99.90
29571;DHT22;16814;52.118;11.436;2023-05-27T07:38:37;18.30;99.90
29571;DHT22;16814;52.118;11.436;2023-05-27T07:41:06;18.50;99.90
29571;DHT22;16814;52.118;11.436;2023-05-27T07:43:32;18.80;99.60
29571;DHT22;16814;52.118;11.436;2023-05-27T07:45:59;19.10;99.80
29571;DHT22;16814;52.118;11.436;2023-05-27T07:48:28;19.20;99.20
29571;DHT22;16814;52.118;11.436;2023-05-27T07:50:55;19.00;99.20
29571;DHT22;16814;52.118;11.436;2023-05-27T07:53:21;18.90;99.30
29571;DHT22;16814;52.118;11.436;2023-05-27T07:55:50;19.00;99.20
29571;DHT22;16814;52.118;11.436;2023-05-27T07:58:16;19.40;98.30
29571;DHT22;16814;52.118;11.436;2023-05-27T08:00:42;19.20;98.60
29571;DHT22;16814;52.118;11.436;2023-05-27T08:03:12;19.40;98.10
29571;DHT22;16814;52.118;11.436;2023-05-27T08:05:39;19.60;98.30
29571;DHT22;16814;52.118;11.436;2023-05-27T08:08:06;19.60;97.50
29571;DHT22;16814;52.118;11.436;2023-05-27T08:10:31;19.70;97.10
29571;DHT22;16814;52.118;11.436;2023-05-27T08:12:58;19.90;96.60
29571;DHT22;16814;52.118;11.436;2023-05-27T08:15:26;20.30;96.80
29571;DHT22;16814;52.118;11.436;2023-05-27T08:17:53;20.00;96.40
29571;DHT22;16814;52.118;11.436;2023-05-27T08:20:19;20.10;96.80
29571;DHT22;16814;52.118;11.436;2023-05-27T08:22:45;20.80;97.40
29571;DHT22;16814;52.118;11.436;2023-05-27T08:25:11;21.20;96.20
29571;DHT22;16814;52.118;11.436;2023-05-27T08:27:56;21.30;94.80
29571;DHT22;16814;52.118;11.436;2023-05-27T08:30:29;20.80;93.90
29571;DHT22;16814;52.118;11.436;2023-05-27T08:32:58;20.50;94.00
29571;DHT22;16814;52.118;11.436;2023-05-27T08:35:24;20.40;94.70
29571;DHT22;16814;52.118;11.436;2023-05-27T08:37:49;20.20;95.30
29571;DHT22;16814;52.118;11.436;2023-05-27T08:40:17;20.60;94.50
29571;DHT22;16814;52.118;11.436;2023-05-27T08:42:44;20.80;93.70
29571;DHT22;16814;52.118;11.436;2023-05-27T08:45:12;20.90;93.60
29571;DHT22;16814;52.118;11.436;2023-05-27T08:47:41;21.00;93.70
29571;DHT22;16814;52.118;11.436;2023-05-27T08:50:08;21.50;93.60
29571;DHT22;16814;52.118;11.436;2023-05-27T08:52:41;21.70;93.60
29571;DHT22;16814;52.118;11.436;2023-05-27T08:55:12;22.00;93.40
29571;DHT22;16814;52.118;11.436;2023-05-27T08:57:46;21.90;91.60
29571;DHT22;16814;52.118;11.436;2023-05-27T09:00:12;21.20;93.20
29571;DHT22;16814;52.118;11.436;2023-05-27T09:02:40;21.20;92.70
29571;DHT22;16814;52.118;11.436;2023-05-27T09:05:08;20.80;93.10
29571;DHT22;16814;52.118;11.436;2023-05-27T09:07:37;21.30;93.00
29571;DHT22;16814;52.118;11.436;2023-05-27T09:10:05;21.90;91.60
29571;DHT22;16814;52.118;11.436;2023-05-27T09:12:35;22.00;91.70
29571;DHT22;16814;52.118;11.436;2023-05-27T09:15:05;22.30;91.40
29571;DHT22;16814;52.118;11.436;2023-05-27T09:17:31;22.30;90.80
29571;DHT22;16814;52.118;11.436;2023-05-27T09:19:58;22.20;89.50
29571;DHT22;16814;52.118;11.436;2023-05-27T09:22:30;21.30;90.70
29571;DHT22;16814;52.118;11.436;2023-05-27T09:24:57;21.80;91.80
29571;DHT22;16814;52.118;11.436;2023-05-27T09:27:31;21.90;90.00
29571;DHT22;16814;52.118;11.436;2023-05-27T09:30:09;21.20;91.40
29571;DHT22;16814;52.118;11.436;2023-05-27T09:32:34;21.10;91.60
29571;DHT22;16814;52.118;11.436;2023-05-27T09:35:01;21.40;90.60
29571;DHT22;16814;52.118;11.436;2023-05-27T09:37:30;21.70;92.20
29571;DHT22;16814;52.118;11.436;2023-05-27T09:40:13;22.40;88.90
29571;DHT22;16814;52.118;11.436;2023-05-27T09:42:49;22.50;89.70
29571;DHT22;16814;52.118;11.436;2023-05-27T09:45:19;22.40;88.60
29571;DHT22;16814;52.118;11.436;2023-05-27T09:48:25;22.30;85.50
29571;DHT22;16814;52.118;11.436;2023-05-27T09:51:00;22.20;86.50
29571;DHT22;16814;52.118;11.436;2023-05-27T09:53:28;22.30;87.80
29571;DHT22;16814;52.118;11.436;2023-05-27T09:55:57;22.40;85.30
29571;DHT22;16814;52.118;11.436;2023-05-27T09:58:24;22.50;84.50
29571;DHT22;16814;52.118;11.436;2023-05-27T10:00:52;21.80;84.30
29571;DHT22;16814;52.118;11.436;2023-05-27T10:03:22;21.70;87.10
29571;DHT22;16814;52.118;11.436;2023-05-27T10:05:50;21.80;84.30
29571;DHT22;16814;52.118;11.436;2023-05-27T10:08:20;22.00;86.50
29571;DHT22;16814;52.118;11.436;2023-05-27T10:10:49;22.30;86.90
29571;DHT22;16814;52.118;11.436;2023-05-27T10:13:18;22.50;85.70
29571;DHT22;16814;52.118;11.436;2023-05-27T10:15:50;22.90;84.00
29571;DHT22;16814;52.118;11.436;2023-05-27T10:18:31;23.00;81.20
29571;DHT22;16814;52.118;11.436;2023-05-27T10:21:05;22.50;81.00
29571;DHT22;16814;52.118;11.436;2023-05-27T10:23:32;22.30;79.30
29571;DHT22;16814;52.118;11.436;2023-05-27T10:26:10;21.90;81.90
29571;DHT22;16814;52.118;11.436;2023-05-27T10:28:39;21.80;80.30
29571;DHT22;16814;52.118;11.436;2023-05-27T10:31:07;22.20;82.20
29571;DHT22;16814;52.118;11.436;2023-05-27T10:33:35;22.40;82.00
29571;DHT22;16814;52.118;11.436;2023-05-27T10:36:15;22.60;83.60
29571;DHT22;16814;52.118;11.436;2023-05-27T10:38:42;22.60;82.80
29571;DHT22;16814;52.118;11.436;2023-05-27T10:41:11;22.70;83.90
29571;DHT22;16814;52.118;11.436;2023-05-27T10:43:39;22.80;83.00
29571;DHT22;16814;52.118;11.436;2023-05-27T10:46:14;23.30;84.00
29571;DHT22;16814;52.118;11.436;2023-05-27T10:48:41;23.50;80.00
29571;DHT22;16814;52.118;11.436;2023-05-27T10:51:10;23.20;81.50
29571;DHT22;16814;52.118;11.436;2023-05-27T10:53:38;23.20;81.80
29571;DHT22;16814;52.118;11.436;2023-05-27T10:56:06;23.10;82.10
29571;DHT22;16814;52.118;11.436;2023-05-27T10:58:35;22.90;82.80
29571;DHT22;16814;52.118;11.436;2023-05-27T11:01:14;22.40;83.60
29571;DHT22;16814;52.118;11.436;2023-05-27T11:03:46;22.60;83.60
29571;DHT22;16814;52.118;11.436;2023-05-27T11:06:15;22.80;80.00
29571;DHT22;16814;52.118;11.436;2023-05-27T11:08:42;22.80;80.30
29571;DHT22;16814;52.118;11.436;2023-05-27T11:11:12;22.40;80.00
29571;DHT22;16814;52.118;11.436;2023-05-27T11:13:45;21.90;80.80
29571;DHT22;16814;52.118;11.436;2023-05-27T11:16:16;22.10;84.70
29571;DHT22;16814;52.118;11.436;2023-05-27T11:18:46;22.50;81.70
29571;DHT22;16814;52.118;11.436;2023-05-27T11:21:15;22.60;78.90
29571;DHT22;16814;52.118;11.436;2023-05-27T11:23:48;22.50;80.60
29571;DHT22;16814;52.118;11.436;2023-05-27T11:26:20;22.70;76.40
29571;DHT22;16814;52.118;11.436;2023-05-27T11:28:55;22.70;79.50
29571;DHT22;16814;52.118;11.436;2023-05-27T11:31:28;22.80;77.80
29571;DHT22;16814;52.118;11.436;2023-05-27T11:33:55;22.70;78.40
29571;DHT22;16814;52.118;11.436;2023-05-27T11:36:27;22.30;79.50
29571;DHT22;16814;52.118;11.436;2023-05-27T11:39:01;22.50;78.30
29571;DHT22;16814;52.118;11.436;2023-05-27T11:41:29;22.30;80.90
29571;DHT22;16814;52.118;11.436;2023-05-27T11:44:05;21.70;79.70
29571;DHT22;16814;52.118;11.436;2023-05-27T11:46:40;21.90;79.30
29571;DHT22;16814;52.118;11.436;2023-05-27T11:49:09;21.90;80.50
29571;DHT22;16814;52.118;11.436;2023-05-27T11:51:40;22.00;81.30
29571;DHT22;16814;52.118;11.436;2023-05-27T11:54:06;21.90;79.80
29571;DHT22;16814;52.118;11.436;2023-05-27T11:56:52;21.90;80.10
29571;DHT22;16814;52.118;11.436;2023-05-27T11:59:20;21.90;79.20
29571;DHT22;16814;52.118;11.436;2023-05-27T12:01:47;21.60;78.10
29571;DHT22;16814;52.118;11.436;2023-05-27T12:04:18;21.40;79.50
29571;DHT22;16814;52.118;11.436;2023-05-27T12:06:45;21.00;80.30
29571;DHT22;16814;52.118;11.436;2023-05-27T12:09:11;21.20;80.10
29571;DHT22;16814;52.118;11.436;2023-05-27T12:11:39;21.10;80.90
29571;DHT22;16814;52.118;11.436;2023-05-27T12:14:05;20.60;80.50
29571;DHT22;16814;52.118;11.436;2023-05-27T12:16:32;20.70;82.50
29571;DHT22;16814;52.118;11.436;2023-05-27T12:19:00;20.70;81.40
29571;DHT22;16814;52.118;11.436;2023-05-27T12:21:27;21.10;82.70
29571;DHT22;16814;52.118;11.436;2023-05-27T12:23:54;21.40;83.60
29571;DHT22;16814;52.118;11.436;2023-05-27T12:26:20;21.50;83.70
29571;DHT22;16814;52.118;11.436;2023-05-27T12:28:47;21.50;84.60
29571;DHT22;16814;52.118;11.436;2023-05-27T12:31:14;21.20;82.70
29571;DHT22;16814;52.118;11.436;2023-05-27T12:33:41;21.20;83.80
29571;DHT22;16814;52.118;11.436;2023-05-27T12:36:08;21.30;85.40
29571;DHT22;16814;52.118;11.436;2023-05-27T12:38:34;21.30;83.90
29571;DHT22;16814;52.118;11.436;2023-05-27T12:41:02;21.20;80.60
29571;DHT22;16814;52.118;11.436;2023-05-27T12:43:29;21.20;81.40
29571;DHT22;16814;52.118;11.436;2023-05-27T12:45:55;21.00;82.80
29571;DHT22;16814;52.118;11.436;2023-05-27T12:48:23;20.90;87.00
29571;DHT22;16814;52.118;11.436;2023-05-27T12:50:49;20.80;85.80
29571;DHT22;16814;52.118;11.436;2023-05-27T12:53:15;20.80;85.30
29571;DHT22;16814;52.118;11.436;2023-05-27T12:55:43;20.80;85.50
29571;DHT22;16814;52.118;11.436;2023-05-27T12:58:11;20.70;86.10
29571;DHT22;16814;52.118;11.436;2023-05-27T13:00:37;20.90;87.20
29571;DHT22;16814;52.118;11.436;2023-05-27T13:03:06;20.90;87.30
29571;DHT22;16814;52.118;11.436;2023-05-27T13:05:33;20.90;87.20
29571;DHT22;16814;52.118;11.436;2023-05-27T13:08:00;21.00;85.90
29571;DHT22;16814;52.118;11.436;2023-05-27T13:10:27;21.10;87.40
29571;DHT22;16814;52.118;11.436;2023-05-27T13:12:55;21.00;87.60
29571;DHT22;16814;52.118;11.436;2023-05-27T13:15:23;21.00;89.00
29571;DHT22;16814;52.118;11.436;2023-05-27T13:17:50;21.00;86.70
29571;DHT22;16814;52.118;11.436;2023-05-27T13:20:21;21.10;87.00
29571;DHT22;16814;52.118;11.436;2023-05-27T13:22:47;20.90;84.50
29571;DHT22;16814;52.118;11.436;2023-05-27T13:25:16;21.00;85.40
29571;DHT22;16814;52.118;11.436;2023-05-27T13:27:43;20.90;85.70
29571;DHT22;16814;52.118;11.436;2023-05-27T13:30:21;20.90;87.50
29571;DHT22;16814;52.118;11.436;2023-05-27T13:32:47;20.80;85.10
29571;DHT22;16814;52.118;11.436;2023-05-27T13:35:15;20.80;86.20
29571;DHT22;16814;52.118;11.436;2023-05-27T13:37:43;20.80;86.00
29571;DHT22;16814;52.118;11.436;2023-05-27T13:40:10;20.70;85.00
29571;DHT22;16814;52.118;11.436;2023-05-27T13:42:38;20.80;85.10
29571;DHT22;16814;52.118;11.436;2023-05-27T13:45:07;20.70;87.30
29571;DHT22;16814;52.118;11.436;2023-05-27T13:47:35;20.70;87.20
29571;DHT22;16814;52.118;11.436;2023-05-27T13:50:06;20.80;86.70
29571;DHT22;16814;52.118;11.436;2023-05-27T13:52:32;20.80;86.50
29571;DHT22;16814;52.118;11.436;2023-05-27T13:55:00;20.70;87.90
29571;DHT22;16814;52.118;11.436;2023-05-27T13:57:27;20.60;85.80
29571;DHT22;16814;52.118;11.436;2023-05-27T13:59:54;20.50;85.40
29571;DHT22;16814;52.118;11.436;2023-05-27T14:02:20;20.40;84.00
29571;DHT22;16814;52.118;11.436;2023-05-27T14:04:49;20.30;84.80
29571;DHT22;16814;52.118;11.436;2023-05-27T14:07:15;20.40;83.30
29571;DHT22;16814;52.118;11.436;2023-05-27T14:09:48;20.40;85.00
29571;DHT22;16814;52.118;11.436;2023-05-27T14:12:14;20.30;85.40
29571;DHT22;16814;52.118;11.436;2023-05-27T14:14:42;20.60;87.00
29571;DHT22;16814;52.118;11.436;2023-05-27T14:17:08;20.80;85.90
29571;DHT22;16814;52.118;11.436;2023-05-27T14:19:36;20.90;85.50
29571;DHT22;16814;52.118;11.436;2023-05-27T14:22:03;21.00;86.20
29571;DHT22;16814;52.118;11.436;2023-05-27T14:24:30;21.20;85.50
29571;DHT22;16814;52.118;11.436;2023-05-27T14:26:57;21.10;85.30
29571;DHT22;16814;52.118;11.436;2023-05-27T14:29:25;21.00;85.50
29571;DHT22;16814;52.118;11.436;2023-05-27T14:31:50;20.90;86.20
29571;DHT22;16814;52.118;11.436;2023-05-27T14:34:17;20.80;86.00
29571;DHT22;16814;52.118;11.436;2023-05-27T14:36:45;20.90;87.60
29571;DHT22;16814;52.118;11.436;2023-05-27T14:39:11;21.20;86.40
29571;DHT22;16814;52.118;11.436;2023-05-27T14:41:39;21.20;85.90
29571;DHT22;16814;52.118;11.436;2023-05-27T14:44:07;21.20;83.40
29571;DHT22;16814;52.118;11.436;2023-05-27T14:46:33;21.00;84.40
29571;DHT22;16814;52.118;11.436;2023-05-27T14:48:58;20.90;82.70
29571;DHT22;16814;52.118;11.436;2023-05-27T14:51:25;20.90;83.30
29571;DHT22;16814;52.118;11.436;2023-05-27T14:53:51;20.90;83.00
29571;DHT22;16814;52.118;11.436;2023-05-27T14:56:17;20.90;84.10
29571;DHT22;16814;52.118;11.436;2023-05-27T14:58:44;20.80;81.40
29571;DHT22;16814;52.118;11.436;2023-05-27T15:01:13;20.90;82.30
29571;DHT22;16814;52.118;11.436;2023-05-27T15:03:43;20.90;82.30
29571;DHT22;16814;52.118;11.436;2023-05-27T15:06:09;20.80;82.20
29571;DHT22;16814;52.118;11.436;2023-05-27T15:08:36;20.80;81.30
29571;DHT22;16814;52.118;11.436;2023-05-27T15:11:04;20.70;81.70
29571;DHT22;16814;52.118;11.436;2023-05-27T15:13:30;20.70;82.90
29571;DHT22;16814;52.118;11.436;2023-05-27T15:15:58;20.90;84.00
29571;DHT22;16814;52.118;11.436;2023-05-27T15:18:23;21.10;83.40
29571;DHT22;16814;52.118;11.436;2023-05-27T15:20:50;21.10;83.60
29571;DHT22;16814;52.118;11.436;2023-05-27T15:23:17;21.30;83.60
29571;DHT22;16814;52.118;11.436;2023-05-27T15:25:47;21.40;82.30
29571;DHT22;16814;52.118;11.436;2023-05-27T15:28:14;21.30;81.50
29571;DHT22;16814;52.118;11.436;2023-05-27T15:30:42;21.40;82.60
29571;DHT22;16814;52.118;11.436;2023-05-27T15:33:09;21.50;81.90